Latest Weather Observations for Young

IDN60801

Issued at 9:35 am EDT Thursday 23 October 2014 (issued every 30 minutes, with the page automatically refreshed every 10 minutes)

About weather observations | Map of weather stations | Latest weather observations for NSW | Other Formats
Station Details ID: 073138 Name: YOUNG AIRPORT Lat: -34.25 Lon: 148.25 Height: 379.6 m
Data from the previous 72 hours. | See also: Recent months at Young
Date/Time
EDT
Temp
°C
App
Temp
°C
Dew
Point
Rel
Hum
%
Delta-T
°C
Wind Press
QNH
hPa
Press
MSL
hPa
Rain
since 9 am
mm
Dir
 
Spd
km/h
Gust
km/h
Spd
kts
Gust
kts
23/09:30am 23.7 22.8 13.6 53 6.0 N 11 13 6 7 1019.4 1019.1 0.0
23/09:00am 20.4 20.2 14.7 70 3.4 NW 9 13 5 7 1019.8 1019.5 0.2
23/08:30am 17.9 18.3 15.3 85 1.5 E 7 9 4 5 1019.5 1019.2 0.2
23/08:00am 15.1 15.5 13.8 92 0.7 WNW 4 11 2 6 1019.6 1019.3 0.2
23/07:30am 14.0 13.6 13.1 94 0.5 S 7 11 4 6 1019.3 1019.0 0.0
23/07:00am 13.2 12.5 11.9 92 0.7 S 7 11 4 6 1019.0 1018.7 0.0
23/06:30am 13.2 12.5 11.9 92 0.7 S 7 9 4 5 1018.5 1018.2 0.0
23/06:00am 12.6 12.6 11.3 92 0.7 E 2 9 1 5 1018.3 1018.0 0.0
23/05:30am 12.9 11.3 11.5 91 0.8 N 11 17 6 9 1017.5 1017.1 0.0
23/05:00am 12.0 11.5 10.9 93 0.6 SE 4 7 2 4 1017.8 1017.4 0.0
23/04:30am 11.5 10.1 10.9 96 0.3 SSW 9 17 5 9 1018.2 1017.9 0.0
23/04:00am 9.4 7.8 8.8 96 0.3 SSE 7 11 4 6 1017.8 1017.4 0.0
23/03:30am 8.6 7.0 7.8 95 0.4 SW 6 7 3 4 1017.8 1017.4 0.0
23/03:00am 8.7 6.9 7.8 94 0.4 S 7 11 4 6 1018.0 1017.6 0.0
23/02:30am 9.0 7.2 8.1 94 0.4 SSW 7 9 4 5 1018.1 1017.7 0.0
23/02:00am 8.6 6.7 7.7 94 0.4 SSW 7 9 4 5 1018.1 1017.7 0.0
23/01:30am 9.0 7.4 7.9 93 0.5 SSW 6 7 3 4 1018.4 1018.1 0.0
23/01:00am 9.7 8.1 8.9 95 0.4 S 7 11 4 6 1018.7 1018.4 0.0
23/12:30am 9.8 8.3 8.4 91 0.7 SSW 6 7 3 4 1018.9 1018.6 0.0
23/12:00am 10.3 8.8 9.2 93 0.6 S 7 9 4 5 1019.0 1018.7 0.0
 
Date/Time
EDT
Temp
°C
App
Temp
°C
Dew
Point
Rel
Hum
%
Delta-T
°C
Wind Press
QNH
hPa
Press
MSL
hPa
Rain
since 9 am
mm
Dir
 
Spd
km/h
Gust
km/h
Spd
kts
Gust
kts
22/11:30pm 10.2 8.7 8.6 90 0.8 SSW 6 7 3 4 1019.1 1018.8 0.0
22/11:00pm 11.3 9.9 9.7 90 0.8 SSW 7 9 4 5 1019.2 1018.9 0.0
22/10:30pm 11.7 10.4 9.8 88 1.0 S 7 9 4 5 1019.2 1018.9 0.0
22/10:00pm 12.2 11.1 10.1 87 1.1 SSW 6 9 3 5 1019.3 1019.0 0.0
22/09:30pm 13.1 12.0 10.6 85 1.3 SW 7 9 4 5 1019.1 1018.8 0.0
22/09:00pm 14.7 13.9 11.7 82 1.6 S 7 7 4 4 1018.9 1018.6 0.0
22/08:30pm 15.7 15.2 11.9 78 2.1 S 6 7 3 4 1018.6 1018.3 0.0
22/08:00pm 17.2 16.7 12.1 72 2.9 SW 6 7 3 4 1018.4 1018.1 0.0
22/07:30pm 20.7 21.4 12.1 58 4.9 CALM 0 0 0 0 1018.2 1017.9 0.0
22/07:00pm 24.5 24.3 11.8 45 7.3 NNW 4 6 2 3 1018.0 1017.6 0.0
22/06:30pm 26.7 25.2 10.4 36 9.3 N 9 13 5 7 1017.9 1017.5 0.0
22/06:00pm 27.4 25.4 10.2 34 9.8 N 11 15 6 8 1018.1 1017.7 0.0
22/05:30pm 27.9 25.8 9.7 32 10.3 N 11 19 6 10 1018.2 1017.9 0.0
22/05:00pm 28.3 26.4 10.5 33 10.2 NW 11 19 6 10 1018.3 1018.0 0.0
22/04:30pm 28.1 26.7 10.8 34 10.0 N 9 17 5 9 1018.5 1018.2 0.0
22/04:00pm 28.3 27.0 11.4 35 9.8 NNW 9 20 5 11 1018.8 1018.5 0.0
22/03:30pm 27.2 24.4 10.0 34 9.8 NNW 15 24 8 13 1019.2 1018.9 0.0
22/03:00pm 26.8 23.9 10.9 37 9.1 NNW 17 26 9 14 1019.7 1019.4 0.0
22/02:30pm 26.8 24.6 10.9 37 9.1 N 13 20 7 11 1020.1 1019.8 0.0
22/02:00pm 26.8 23.4 11.3 38 8.9 NNE 20 24 11 13 1020.8 1020.5 0.0
22/01:30pm 25.9 23.1 11.3 40 8.4 NNE 17 32 9 17 1021.2 1020.9 0.0
22/01:00pm 24.3 22.2 11.3 44 7.4 N 13 22 7 12 1021.8 1021.5 0.0
22/12:30pm 23.6 20.6 10.6 44 7.3 N 17 28 9 15 1022.4 1022.1 0.0
22/12:00pm 23.0 20.4 10.8 46 6.8 NE 15 20 8 11 1023.1 1022.8 0.0
22/11:30am 21.6 17.2 10.4 49 6.2 NNE 24 26 13 14 1023.8 1023.5 0.0
22/11:00am 20.5 17.7 10.0 51 5.7 NNE 15 20 8 11 1024.3 1024.0 0.0
22/10:30am 19.6 16.8 10.0 54 5.2 NNE 15 28 8 15 1024.8 1024.5 0.0
22/10:00am 18.1 15.7 10.0 59 4.4 NE 13 19 7 10 1025.0 1024.8 0.0
22/09:30am 17.0 14.5 9.7 62 3.9 NE 13 19 7 10 1025.0 1024.8 0.0
22/09:00am 15.4 12.8 9.3 67 3.2 E 13 19 7 10 1024.9 1024.7 0.0
22/08:30am 14.0 11.3 9.0 72 2.6 E 13 20 7 11 1024.9 1024.7 0.0
22/08:00am 12.6 10.7 8.9 78 1.9 ESE 9 13 5 7 1025.0 1024.8 0.0
22/07:30am 10.9 9.8 8.5 85 1.2 SSE 4 7 2 4 1025.0 1024.8 0.0
22/07:00am 8.5 6.5 7.1 91 0.7 S 7 7 4 4 1024.9 1024.7 0.0
22/06:30am 7.7 6.6 6.8 94 0.4 S 2 7 1 4 1024.5 1024.2 0.0
22/06:00am 7.8 6.3 6.6 92 0.6 ESE 4 7 2 4 1024.2 1023.9 0.0
22/05:30am 8.7 7.7 7.2 90 0.7 WSW 2 6 1 3 1024.1 1023.8 0.0
22/05:00am 9.7 8.4 7.5 86 1.1 S 4 11 2 6 1023.9 1023.6 0.0
22/04:30am 10.3 7.0 7.9 85 1.2 SSE 15 22 8 12 1023.6 1023.3 0.0
22/04:00am 10.2 7.3 8.0 86 1.1 SSE 13 17 7 9 1023.8 1023.5 0.0
22/03:30am 10.2 7.3 8.0 86 1.1 SSE 13 17 7 9 1024.2 1023.9 0.0
22/03:00am 10.4 7.5 8.0 85 1.2 SSE 13 17 7 9 1024.6 1024.3 0.0
22/02:30am 10.7 8.6 8.1 84 1.3 S 9 13 5 7 1024.9 1024.7 0.0
22/02:00am 10.8 8.7 8.2 84 1.3 S 9 13 5 7 1025.3 1025.1 0.0
22/01:30am 11.2 8.7 8.4 83 1.4 SSE 11 15 6 8 1025.9 1025.6 0.0
22/01:00am 11.1 8.7 8.5 84 1.3 SSE 11 17 6 9 1026.4 1026.1 0.0
22/12:30am 11.4 8.6 8.4 82 1.5 SSE 13 17 7 9 1026.8 1026.5 0.0
22/12:00am 11.9 9.1 8.7 81 1.6 SSE 13 17 7 9 1027.0 1026.7 0.0
 
Date/Time
EDT
Temp
°C
App
Temp
°C
Dew
Point
Rel
Hum
%
Delta-T
°C
Wind Press
QNH
hPa
Press
MSL
hPa
Rain
since 9 am
mm
Dir
 
Spd
km/h
Gust
km/h
Spd
kts
Gust
kts
21/11:30pm 12.3 9.6 9.0 80 1.7 SSE 13 20 7 11 1027.1 1026.8 0.0
21/11:00pm 12.7 9.3 9.2 79 1.8 SSE 17 22 9 12 1026.9 1026.6 0.0
21/10:30pm 13.2 10.2 9.3 77 2.0 SSE 15 20 8 11 1027.0 1026.7 0.0
21/10:00pm 14.0 11.9 9.6 75 2.3 SSE 11 17 6 9 1026.9 1026.6 0.0
21/09:30pm 15.0 11.8 10.0 72 2.7 SE 17 28 9 15 1026.5 1026.2 0.0
21/09:00pm 16.0 12.3 10.3 69 3.0 SE 20 30 11 16 1026.2 1025.9 0.0
21/08:30pm 16.5 12.9 10.4 67 3.3 SE 20 30 11 16 1025.9 1025.6 0.0
21/08:00pm 17.3 13.9 10.7 65 3.6 SE 19 28 10 15 1025.5 1025.3 0.0
21/07:30pm 18.3 15.1 11.1 63 4.0 ESE 19 30 10 16 1025.2 1025.0 0.0
21/07:00pm 19.9 17.2 11.7 59 4.6 SE 17 26 9 14 1024.9 1024.7 0.0
21/06:30pm 21.4 18.3 11.7 54 5.5 ESE 19 26 10 14 1024.6 1024.3 0.0
21/06:00pm 22.3 19.1 12.0 52 5.9 ESE 20 28 11 15 1024.4 1024.1 0.0
21/05:30pm 23.2 20.5 11.6 48 6.6 ESE 17 24 9 13 1024.4 1024.1 0.0
21/05:00pm 24.2 22.3 13.1 50 6.5 SE 15 20 8 11 1024.5 1024.2 0.0
21/04:30pm 23.6 20.5 11.6 47 6.9 E 19 28 10 15 1024.6 1024.3 0.0
21/04:00pm 24.4 22.5 11.7 45 7.3 E 13 24 7 13 1024.8 1024.5 0.0
21/03:30pm 24.1 21.6 11.1 44 7.4 E 15 22 8 12 1025.1 1024.9 0.0
21/03:00pm 23.7 21.5 12.0 48 6.7 ESE 15 24 8 13 1025.4 1025.2 0.0
21/02:30pm 24.0 22.2 10.7 43 7.5 NNE 11 20 6 11 1026.0 1025.7 0.0
21/02:00pm 23.3 21.0 12.9 52 6.1 ESE 17 24 9 13 1026.6 1026.3 0.0
21/01:30pm 23.4 20.6 11.5 47 6.8 ENE 17 24 9 13 1027.0 1026.7 0.0
21/01:00pm 21.9 19.1 11.3 51 6.0 E 17 26 9 14 1027.3 1027.1 0.0
21/12:30pm 21.1 17.6 10.3 50 6.0 E 19 26 10 14 1027.6 1027.4 0.0
21/12:00pm 20.3 16.7 10.4 53 5.4 ESE 20 33 11 18 1028.2 1028.0 0.0
21/11:30am 20.3 16.9 10.4 53 5.5 ENE 19 24 10 13 1028.7 1028.4 0.0
21/11:00am 19.0 15.0 10.3 57 4.7 ESE 22 30 12 16 1029.1 1028.8 0.0
21/10:30am 18.7 15.0 10.3 58 4.6 E 20 28 11 15 1029.3 1029.0 0.0
21/10:00am 17.5 13.9 9.7 60 4.2 E 19 33 10 18 1029.6 1029.4 0.0
21/09:30am 16.4 12.6 8.9 61 3.9 E 19 28 10 15 1029.5 1029.3 0.0
21/09:00am 15.7 11.9 9.1 65 3.4 E 19 28 10 15 1029.3 1029.0 0.0
21/08:30am 14.4 11.0 9.0 70 2.8 ESE 17 28 9 15 1029.1 1028.8 0.0
21/08:00am 13.2 8.7 8.5 73 2.4 ESE 22 33 12 18 1028.7 1028.4 0.0
21/07:30am 12.5 9.8 8.8 78 1.9 SE 13 22 7 12 1028.4 1028.2 0.0
21/07:00am 11.6 9.5 8.1 79 1.7 SE 9 15 5 8 1028.3 1028.1 0.0
21/06:30am 10.9 8.7 7.8 81 1.5 SE 9 17 5 9 1027.9 1027.7 0.0
21/06:00am 11.0 8.4 7.9 81 1.5 SE 11 19 6 10 1027.5 1027.3 0.0
21/05:30am 11.0 8.4 7.9 81 1.5 ESE 11 17 6 9 1027.4 1027.2 0.0
21/05:00am 11.0 8.4 7.9 81 1.5 SE 11 20 6 11 1027.4 1027.2 0.0
21/04:30am 11.2 8.7 8.1 81 1.5 SE 11 19 6 10 1027.3 1027.1 0.0
21/04:00am 11.1 8.9 8.0 81 1.5 SE 9 17 5 9 1027.2 1027.0 0.0
21/03:30am 11.0 8.8 7.9 81 1.5 SE 9 17 5 9 1027.4 1027.2 0.0
21/03:00am 11.2 8.6 7.9 80 1.6 SE 11 20 6 11 1027.4 1027.2 0.0
21/02:30am 11.3 8.7 7.8 79 1.7 SE 11 19 6 10 1027.4 1027.2 0.0
21/02:00am 11.2 8.6 7.7 79 1.7 ESE 11 17 6 9 1027.5 1027.3 0.0
21/01:30am 11.4 8.0 7.7 78 1.8 ESE 15 24 8 13 1027.7 1027.5 0.0
21/01:00am 11.5 7.7 7.6 77 1.9 ESE 17 28 9 15 1027.6 1027.4 0.0
21/12:30am 11.5 7.4 7.8 78 1.8 ESE 19 33 10 18 1027.8 1027.6 0.0
21/12:00am 11.6 7.3 7.7 77 1.9 ESE 20 39 11 21 1027.9 1027.7 0.0
 
Date/Time
EDT
Temp
°C
App
Temp
°C
Dew
Point
Rel
Hum
%
Delta-T
°C
Wind Press
QNH
hPa
Press
MSL
hPa
Rain
since 9 am
mm
Dir
 
Spd
km/h
Gust
km/h
Spd
kts
Gust
kts
20/11:30pm 11.6 6.9 7.7 77 1.9 ESE 22 37 12 20 1027.8 1027.6 0.0
20/11:00pm 11.7 6.2 7.6 76 2.0 ESE 26 39 14 21 1027.7 1027.5 0.0
20/10:30pm 12.0 7.0 7.9 76 2.0 ESE 24 46 13 25 1027.6 1027.4 0.0
20/10:02pm 12.3 6.6 8.2 76 2.1 ESE 28 46 15 25 1027.5 1027.3 0.0
20/10:00pm 12.3 6.9 8.2 76 2.1 ESE 26 46 14 25 1027.5 1027.3 0.0
20/09:30pm 12.5 6.8 8.4 76 2.1 ESE 28 43 15 23 1027.3 1027.1 0.0
20/09:00pm 13.3 7.7 8.8 74 2.3 SE 28 48 15 26 1026.8 1026.5 0.0
20/08:46pm 13.8 8.0 9.3 74 2.3 SE 30 48 16 26 1026.5 1026.2 0.0
20/08:30pm 14.3 9.7 9.5 73 2.5 SE 24 39 13 21 1026.2 1025.9 0.0
20/08:04pm 15.2 9.9 9.8 70 2.9 ESE 28 46 15 25 1025.9 1025.6 0.0
20/08:00pm 15.2 9.9 9.8 70 2.8 ESE 28 41 15 22 1025.7 1025.5 0.0
20/07:30pm 16.1 10.8 10.0 67 3.3 ESE 28 46 15 25 1025.2 1025.0 0.0
20/07:29pm 16.2 11.0 10.1 67 3.3 ESE 28 46 15 25 1025.2 1025.0 0.0
20/07:00pm 17.3 12.9 10.4 64 3.7 SE 24 44 13 24 1024.9 1024.7 0.0
20/06:30pm 18.8 14.2 10.9 60 4.4 SE 26 37 14 20 1024.5 1024.2 0.0
20/06:00pm 19.8 15.3 11.3 58 4.7 SE 26 39 14 21 1024.2 1023.9 0.0
20/05:30pm 20.9 15.8 11.8 56 5.2 SE 30 48 16 26 1024.0 1023.7 0.0
20/05:21pm 21.2 16.3 11.2 53 5.6 SE 28 48 15 26 1023.9 1023.6 0.0
20/05:00pm 21.8 16.2 11.5 52 5.8 ESE 32 43 17 23 1023.7 1023.4 0.0
20/04:30pm 22.5 17.5 12.2 52 5.9 SE 30 39 16 21 1023.4 1023.1 0.0
20/04:17pm 23.4 18.9 12.7 51 6.2 SE 28 46 15 25 1023.3 1023.0 0.0
20/04:00pm 23.7 18.9 13.0 51 6.3 ESE 30 43 16 23 1023.3 1023.0 0.0
20/03:30pm 25.5 22.2 14.0 49 6.9 ESE 24 37 13 20 1023.4 1023.1 0.0
20/03:00pm 26.5 23.5 14.9 49 7.1 ESE 24 33 13 18 1023.6 1023.3 0.0
20/02:30pm 27.6 24.6 10.8 35 9.7 E 17 30 9 16 1023.6 1023.3 0.0
20/02:00pm 27.4 25.0 10.2 34 9.8 ESE 13 20 7 11 1024.0 1023.7 0.0
20/01:30pm 27.3 25.0 11.7 37 9.1 ESE 15 20 8 11 1024.2 1023.9 0.0
20/01:00pm 26.7 23.5 11.2 38 8.9 ESE 19 26 10 14 1024.5 1024.2 0.0
20/12:30pm 27.3 24.6 10.5 35 9.6 E 15 24 8 13 1024.6 1024.3 0.0
20/12:00pm 26.6 24.3 10.3 36 9.2 ESE 13 19 7 10 1025.0 1024.8 0.0
20/11:30am 26.2 23.4 8.7 33 9.7 ESE 13 17 7 9 1025.3 1025.1 0.0
20/11:00am 26.6 25.2 9.5 34 9.5 ESE 7 13 4 7 1025.5 1025.3 0.0
20/10:30am 25.2 23.6 8.7 35 9.1 E 7 11 4 6 1025.6 1025.4 0.0
20/10:00am 23.8 22.7 9.8 41 7.7 ESE 6 9 3 5 1025.6 1025.4 0.0

Other Formats:

Comma delimited format used in spreadsheet applications
http://www.bom.gov.au/fwo/IDN60801/IDN60801.94712.axf

JavaScript Object Notation format (JSON) in row-major order
http://www.bom.gov.au/fwo/IDN60801/IDN60801.94712.json